Cambridge, Kansas
Current Conditions -  °F | °C
As of 9:21 AM on Saturday 22 Nov 2014 (Local Time) from KWLD Reporting Station
Overcast Overcast  
Wind Chill: 57°   Ceiling: 500
Heat Index: 57°   Visibility: 8mi
Dew Point: 57°   Wind: 15mph
Humidity: 100%   Direction: 170°S
Pressure: 29.96"   Gusts: NA
Location:  37.32°N, 96.66°W
Report Text: KWLD 221521Z AUTO 17013KT 8SM OVC005 14/14 A2996 RMK AO2 T01390139
Loading
Personal Weather Stations






























Interactive Weather Map New forecast layout! Learn more

10-Day Weather Forecast

Advertisements
Track Severe Weather on mobile